createdAt,value
2017-01-14T00:00:07.335Z,0.86
2017-01-14T00:01:07.846Z,0.87
2017-01-14T00:02:07.334Z,0.76
2017-01-14T00:03:07.850Z,0.98
2017-01-14T00:04:07.783Z,0.90
2017-01-14T00:05:07.230Z,0.96
2017-01-14T00:06:07.717Z,0.99
2017-01-14T00:07:07.243Z,0.91
2017-01-14T00:08:07.777Z,1.05
2017-01-14T00:09:07.328Z,1.30
2017-01-14T00:10:08.146Z,1.27
2017-01-14T00:11:07.728Z,1.13
2017-01-14T00:12:07.172Z,1.16
2017-01-14T00:13:07.887Z,1.17
2017-01-14T00:14:07.439Z,1.07
2017-01-14T00:15:07.938Z,1.15
2017-01-14T00:16:07.395Z,1.05
2017-01-14T00:17:07.914Z,0.96
2017-01-14T00:18:07.109Z,1.09
2017-01-14T00:19:07.697Z,1.19
2017-01-14T00:20:07.236Z,1.27
2017-01-14T00:21:07.794Z,1.01
2017-01-14T00:22:07.239Z,1.16
2017-01-14T00:23:07.757Z,1.01
2017-01-14T00:24:07.397Z,0.94
2017-01-14T00:25:07.903Z,1.15
2017-01-14T00:26:07.389Z,1.07
2017-01-14T00:27:07.911Z,0.63
2017-01-14T00:28:07.418Z,0.68
2017-01-14T00:29:07.047Z,0.96
2017-01-14T00:30:07.509Z,0.95
2017-01-14T00:31:08.418Z,0.65
2017-01-14T00:32:07.939Z,0.78
2017-01-14T00:33:07.427Z,0.75
2017-01-14T00:34:08.001Z,0.88
2017-01-14T00:35:07.574Z,0.78
2017-01-14T00:36:08.048Z,0.80
2017-01-14T00:37:07.571Z,0.83
2017-01-14T00:38:08.063Z,1.00
2017-01-14T00:39:07.618Z,0.88
2017-01-14T00:40:07.358Z,0.96
2017-01-14T00:41:07.358Z,0.95
2017-01-14T00:42:07.076Z,0.85
2017-01-14T00:43:07.585Z,0.85
2017-01-14T00:44:08.143Z,0.70
2017-01-14T00:45:07.618Z,0.75
2017-01-14T00:46:07.115Z,0.76
2017-01-14T00:47:07.621Z,0.76
2017-01-14T00:48:07.120Z,0.81
2017-01-14T00:49:07.629Z,0.96
2017-01-14T00:50:07.177Z,1.00
2017-01-14T00:51:08.075Z,0.91
2017-01-14T00:52:07.548Z,0.94
2017-01-14T00:53:07.967Z,1.00
2017-01-14T00:54:07.504Z,1.09
2017-01-14T00:55:08.165Z,0.87
2017-01-14T00:56:07.778Z,0.78
2017-01-14T00:57:07.302Z,0.78
2017-01-14T00:58:07.777Z,0.90
2017-01-14T00:59:07.286Z,1.03
2017-01-14T01:00:07.831Z,1.17
2017-01-14T01:01:07.419Z,0.86
2017-01-14T01:02:07.927Z,0.91
2017-01-14T01:03:07.409Z,1.09
2017-01-14T01:04:07.838Z,1.09
2017-01-14T01:05:07.456Z,0.97
2017-01-14T01:06:08.000Z,0.82
2017-01-14T01:07:07.463Z,0.76
2017-01-14T01:08:07.970Z,0.95
2017-01-14T01:09:07.495Z,1.00
2017-01-14T01:10:07.986Z,1.17
2017-01-14T01:11:07.600Z,1.03
2017-01-14T01:12:07.093Z,0.84
2017-01-14T01:13:07.600Z,0.94
2017-01-14T01:14:07.080Z,0.99
2017-01-14T01:15:07.652Z,1.11
2017-01-14T01:16:07.155Z,1.04
2017-01-14T01:17:07.911Z,1.10
2017-01-14T01:18:07.319Z,1.12
2017-01-14T01:19:07.865Z,1.15
2017-01-14T01:20:07.336Z,1.01
2017-01-14T01:21:07.904Z,1.11
2017-01-14T01:22:07.382Z,1.24
2017-01-14T01:23:07.872Z,0.85
2017-01-14T01:24:07.419Z,1.11
2017-01-14T01:25:08.011Z,1.07
2017-01-14T01:26:07.528Z,1.07
2017-01-14T01:27:08.337Z,1.13
2017-01-14T01:28:07.811Z,1.06
2017-01-14T01:29:07.234Z,1.04
2017-01-14T01:30:07.693Z,1.03
2017-01-14T01:31:07.334Z,1.26
2017-01-14T01:32:08.129Z,1.09
2017-01-14T01:33:07.590Z,0.99
2017-01-14T01:34:07.124Z,1.03
2017-01-14T01:35:07.667Z,1.02
2017-01-14T01:36:07.211Z,0.71
2017-01-14T01:37:07.658Z,0.92
2017-01-14T01:38:07.154Z,1.12
2017-01-14T01:39:08.097Z,0.92
2017-01-14T01:40:07.568Z,0.82
2017-01-14T01:41:08.203Z,1.01
2017-01-14T01:42:07.700Z,1.06
2017-01-14T01:43:07.523Z,0.72
2017-01-14T01:44:07.998Z,0.78
2017-01-14T01:45:07.513Z,0.98
2017-01-14T01:46:08.109Z,0.80
2017-01-14T01:47:07.615Z,0.91
2017-01-14T01:48:07.108Z,0.94
2017-01-14T01:49:07.626Z,1.17
2017-01-14T01:50:07.113Z,1.09
2017-01-14T01:51:17.599Z,1.17
2017-01-14T01:52:07.139Z,1.27
2017-01-14T01:53:07.266Z,1.16
2017-01-14T01:54:07.757Z,1.02
2017-01-14T01:55:07.248Z,0.93
2017-01-14T01:56:07.685Z,0.93
2017-01-14T01:57:07.309Z,1.05
2017-01-14T01:58:17.747Z,1.16
2017-01-14T01:59:07.214Z,0.99
2017-01-14T02:00:07.709Z,1.05
2017-01-14T02:01:07.231Z,1.13
2017-01-14T02:02:07.752Z,1.15
2017-01-14T02:03:07.221Z,1.09
2017-01-14T02:04:07.731Z,1.14
2017-01-14T02:05:07.182Z,1.17
2017-01-14T02:06:07.659Z,1.10
2017-01-14T02:07:07.187Z,1.25
2017-01-14T02:08:07.648Z,1.07
2017-01-14T02:09:07.167Z,1.23
2017-01-14T02:10:07.712Z,1.13
2017-01-14T02:11:07.310Z,1.17
2017-01-14T02:12:07.833Z,1.15
2017-01-14T02:13:07.481Z,1.20
2017-01-14T02:14:08.008Z,1.22
2017-01-14T02:15:07.489Z,1.15
2017-01-14T02:16:17.960Z,1.21
2017-01-14T02:17:07.674Z,0.78
2017-01-14T02:18:07.188Z,0.95
2017-01-14T02:19:07.724Z,0.88
2017-01-14T02:20:07.522Z,1.00
2017-01-14T02:21:08.069Z,0.51
2017-01-14T02:22:07.685Z,0.78
2017-01-14T02:23:07.145Z,0.95
2017-01-14T02:24:07.668Z,1.16
2017-01-14T02:25:07.214Z,1.09
2017-01-14T02:26:07.784Z,1.30
2017-01-14T02:27:07.414Z,1.22
2017-01-14T02:28:07.912Z,1.31
2017-01-14T02:29:07.473Z,1.09
2017-01-14T02:30:08.006Z,1.19
2017-01-14T02:31:07.489Z,0.90
2017-01-14T02:32:08.073Z,1.16
2017-01-14T02:33:07.519Z,1.17
2017-01-14T02:34:08.037Z,1.07
2017-01-14T02:35:07.531Z,0.95
2017-01-14T02:36:08.053Z,1.13
2017-01-14T02:37:07.927Z,1.18
2017-01-14T02:38:07.444Z,0.83
2017-01-14T02:39:08.306Z,1.19
2017-01-14T02:40:07.916Z,1.08
2017-01-14T02:41:07.353Z,1.13
2017-01-14T02:42:07.924Z,1.23
2017-01-14T02:43:07.863Z,1.26
2017-01-14T02:44:07.383Z,0.97
2017-01-14T02:45:07.905Z,0.94
2017-01-14T02:46:07.388Z,0.99
2017-01-14T02:47:07.971Z,0.99
2017-01-14T02:48:07.461Z,1.16
2017-01-14T02:49:07.432Z,1.00
2017-01-14T02:50:07.938Z,0.85
2017-01-14T02:51:07.648Z,1.03
2017-01-14T02:52:07.395Z,1.11
2017-01-14T02:53:08.303Z,0.99
2017-01-14T02:54:08.112Z,1.00
2017-01-14T02:55:07.817Z,1.06
2017-01-14T02:56:07.259Z,0.92
2017-01-14T02:57:07.925Z,1.06
2017-01-14T02:58:07.608Z,0.99
2017-01-14T02:59:07.078Z,1.01
2017-01-14T03:00:07.735Z,1.03
2017-01-14T03:01:07.295Z,0.80
2017-01-14T03:02:07.876Z,0.78
2017-01-14T03:03:07.123Z,1.11
2017-01-14T03:04:07.607Z,1.23
2017-01-14T03:05:07.113Z,1.23
2017-01-14T03:06:07.630Z,1.10
2017-01-14T03:07:07.181Z,1.17
2017-01-14T03:08:07.734Z,1.23
2017-01-14T03:09:17.355Z,1.29
2017-01-14T03:10:07.906Z,1.46
2017-01-14T03:11:07.344Z,1.41
2017-01-14T03:12:07.963Z,1.25
2017-01-14T03:13:07.385Z,1.10
2017-01-14T03:14:07.887Z,0.95
2017-01-14T03:15:07.393Z,0.99
2017-01-14T03:16:07.894Z,1.07
2017-01-14T03:17:07.556Z,0.91
2017-01-14T03:18:08.022Z,1.14
2017-01-14T03:19:07.534Z,1.11
2017-01-14T03:20:08.043Z,1.14
2017-01-14T03:21:07.524Z,1.21
2017-01-14T03:22:08.082Z,1.44
2017-01-14T03:23:07.571Z,1.32
2017-01-14T03:24:08.073Z,1.00
2017-01-14T03:25:07.552Z,1.20
2017-01-14T03:26:08.097Z,1.18
2017-01-14T03:27:07.686Z,1.17
2017-01-14T03:28:07.223Z,1.08
2017-01-14T03:29:07.713Z,1.27
2017-01-14T03:30:07.175Z,1.31
2017-01-14T03:31:07.796Z,1.24
2017-01-14T03:32:07.377Z,1.27
2017-01-14T03:33:07.875Z,1.23
2017-01-14T03:34:07.515Z,1.34
2017-01-14T03:35:08.375Z,1.26
2017-01-14T03:36:07.857Z,1.08
2017-01-14T03:37:07.227Z,1.25
2017-01-14T03:38:07.803Z,1.38
2017-01-14T03:39:07.274Z,1.36
2017-01-14T03:40:08.235Z,1.32
2017-01-14T03:41:07.745Z,1.26
2017-01-14T03:42:07.256Z,1.24
2017-01-14T03:43:07.823Z,1.30
2017-01-14T03:44:07.266Z,1.05
2017-01-14T03:45:07.804Z,1.27
2017-01-14T03:46:07.297Z,1.17
2017-01-14T03:47:07.783Z,1.32
2017-01-14T03:48:07.447Z,1.37
2017-01-14T03:49:07.900Z,1.43
2017-01-14T03:50:07.762Z,1.41
2017-01-14T03:51:07.222Z,1.34
2017-01-14T03:52:07.825Z,1.37
2017-01-14T03:53:07.385Z,1.41
2017-01-14T03:54:08.144Z,1.44
2017-01-14T03:55:07.676Z,1.33
2017-01-14T03:56:07.195Z,1.27
2017-01-14T03:57:07.684Z,1.33
2017-01-14T03:58:07.304Z,1.37
2017-01-14T03:59:07.805Z,1.55
2017-01-14T04:00:07.279Z,1.36
2017-01-14T04:01:07.832Z,1.10
2017-01-14T04:02:07.412Z,1.14
2017-01-14T04:03:07.976Z,1.43
2017-01-14T04:04:07.503Z,1.40
2017-01-14T04:05:07.956Z,1.50
2017-01-14T04:06:07.529Z,1.59
2017-01-14T04:07:08.161Z,1.57
2017-01-14T04:08:07.778Z,1.46
2017-01-14T04:09:07.250Z,1.31
2017-01-14T04:10:08.022Z,1.34
2017-01-14T04:11:07.599Z,1.52
2017-01-14T04:12:07.064Z,1.71
2017-01-14T04:13:08.006Z,1.34
2017-01-14T04:14:07.587Z,1.44
2017-01-14T04:15:08.152Z,1.38
2017-01-14T04:16:07.711Z,1.58
2017-01-14T04:17:07.705Z,1.55
2017-01-14T04:18:07.343Z,1.49
2017-01-14T04:19:07.832Z,1.67
2017-01-14T04:20:07.297Z,1.72
2017-01-14T04:21:07.773Z,1.81
2017-01-14T04:22:07.934Z,1.40
2017-01-14T04:23:07.483Z,1.50
2017-01-14T04:24:07.956Z,1.41
2017-01-14T04:25:07.475Z,1.60
2017-01-14T04:26:07.194Z,1.69
2017-01-14T04:27:08.637Z,1.66
2017-01-14T04:28:07.201Z,1.69
2017-01-14T04:29:07.675Z,1.52
2017-01-14T04:30:07.176Z,1.64
2017-01-14T04:31:07.393Z,1.74
2017-01-14T04:32:07.899Z,1.43
2017-01-14T04:33:07.436Z,1.74
2017-01-14T04:34:07.904Z,1.63
2017-01-14T04:35:07.491Z,1.54
2017-01-14T04:36:07.933Z,1.69
2017-01-14T04:37:07.453Z,1.53
2017-01-14T04:38:07.989Z,1.64
2017-01-14T04:39:07.494Z,1.41
2017-01-14T04:40:07.963Z,1.55
2017-01-14T04:41:07.501Z,1.62
2017-01-14T04:42:07.995Z,1.50
2017-01-14T04:43:07.513Z,1.55
2017-01-14T04:44:08.013Z,1.62
2017-01-14T04:45:07.686Z,1.13
2017-01-14T04:46:07.164Z,1.25
2017-01-14T04:47:07.875Z,1.37
2017-01-14T04:48:07.729Z,1.46
2017-01-14T04:49:07.158Z,0.95
2017-01-14T04:50:17.637Z,1.05
2017-01-14T04:51:07.203Z,0.75
2017-01-14T04:52:07.712Z,1.09
2017-01-14T04:53:07.486Z,0.75
2017-01-14T04:54:07.941Z,0.68
2017-01-14T04:55:07.744Z,0.67
2017-01-14T04:56:07.484Z,0.88
2017-01-14T04:57:07.901Z,0.79
2017-01-14T04:58:07.928Z,0.91
2017-01-14T04:59:07.465Z,0.82
2017-01-14T05:00:07.898Z,1.07
2017-01-14T05:01:07.073Z,0.75
2017-01-14T05:02:07.593Z,0.85
2017-01-14T05:03:07.126Z,0.90
2017-01-14T05:04:07.633Z,0.85
2017-01-14T05:05:07.095Z,1.13
2017-01-14T05:06:07.538Z,1.01
2017-01-14T05:07:08.021Z,0.59
2017-01-14T05:08:08.092Z,0.57
2017-01-14T05:09:07.643Z,0.81
2017-01-14T05:10:07.146Z,0.99
2017-01-14T05:11:07.699Z,1.10
2017-01-14T05:12:07.177Z,1.21
2017-01-14T05:13:07.858Z,0.95
2017-01-14T05:14:07.666Z,1.01
2017-01-14T05:15:07.094Z,1.30
2017-01-14T05:16:07.858Z,1.19
2017-01-14T05:17:07.495Z,1.18
2017-01-14T05:18:08.048Z,0.97
2017-01-14T05:19:07.583Z,1.09
2017-01-14T05:20:08.355Z,1.07
2017-01-14T05:21:07.825Z,1.08
2017-01-14T05:22:07.321Z,1.13
2017-01-14T05:23:07.917Z,1.11
2017-01-14T05:24:07.938Z,1.25
2017-01-14T05:25:10.181Z,1.14
2017-01-14T05:26:08.049Z,1.30
2017-01-14T05:27:11.152Z,0.98
2017-01-14T05:28:07.718Z,1.08
2017-01-14T05:29:07.237Z,1.09
2017-01-14T05:30:07.750Z,0.98
2017-01-14T05:31:07.693Z,1.12
2017-01-14T05:32:08.111Z,1.04
2017-01-14T05:33:07.587Z,1.17
2017-01-14T05:34:07.218Z,1.13
2017-01-14T05:35:08.731Z,1.06
2017-01-14T05:36:07.812Z,1.21
2017-01-14T05:37:07.321Z,1.32
2017-01-14T05:38:07.728Z,1.31
2017-01-14T05:39:07.984Z,1.47
2017-01-14T05:40:07.465Z,1.47
2017-01-14T05:41:08.096Z,1.46
2017-01-14T05:42:07.650Z,1.40
2017-01-14T05:43:07.305Z,1.46
2017-01-14T05:45:08.193Z,1.15
2017-01-14T05:45:10.961Z,0.95
2017-01-14T05:46:07.495Z,1.33
2017-01-14T05:47:08.006Z,1.27
2017-01-14T05:48:07.607Z,1.17
2017-01-14T05:49:07.152Z,1.00
2017-01-14T05:50:07.705Z,0.78
2017-01-14T05:51:07.401Z,1.03
2017-01-14T05:52:07.943Z,1.10
2017-01-14T05:53:07.456Z,0.96
2017-01-14T05:54:08.086Z,0.99
2017-01-14T05:55:07.559Z,1.24
2017-01-14T05:56:08.050Z,1.26
2017-01-14T05:57:07.855Z,1.35
2017-01-14T05:58:08.448Z,1.29
2017-01-14T05:59:07.583Z,1.45
2017-01-14T06:00:07.393Z,1.42
2017-01-14T06:01:07.900Z,1.37
2017-01-14T06:02:07.426Z,1.23
2017-01-14T06:03:07.896Z,1.34
2017-01-14T06:04:07.417Z,1.53
2017-01-14T06:05:08.005Z,1.50
2017-01-14T06:06:07.529Z,1.48
2017-01-14T06:07:08.152Z,1.57
2017-01-14T06:08:07.898Z,1.55
2017-01-14T06:09:07.425Z,1.50
2017-01-14T06:10:07.988Z,1.33
2017-01-14T06:11:07.798Z,1.23
2017-01-14T06:12:07.507Z,1.34
2017-01-14T06:13:07.981Z,1.33
2017-01-14T06:14:07.471Z,1.20
2017-01-14T06:15:08.051Z,1.17
2017-01-14T06:16:07.468Z,1.15
2017-01-14T06:17:07.721Z,1.32
2017-01-14T06:18:07.169Z,1.26
2017-01-14T06:19:07.682Z,1.38
2017-01-14T06:20:07.239Z,1.56
2017-01-14T06:22:08.258Z,1.68
2017-01-14T06:22:10.896Z,1.67
2017-01-14T06:23:07.447Z,1.62
2017-01-14T06:24:07.938Z,1.70
2017-01-14T06:25:07.477Z,1.67
2017-01-14T06:26:07.996Z,1.66
2017-01-14T06:27:08.038Z,1.68
2017-01-14T06:28:07.895Z,1.70
2017-01-14T06:29:07.390Z,1.78
2017-01-14T06:30:07.910Z,1.60
2017-01-14T06:31:07.394Z,1.63
2017-01-14T06:32:07.974Z,1.36
2017-01-14T06:33:07.493Z,1.49
2017-01-14T06:34:08.125Z,1.44
2017-01-14T06:35:08.476Z,1.36
2017-01-14T06:36:08.351Z,1.58
2017-01-14T06:37:07.918Z,1.64
2017-01-14T06:38:07.518Z,1.62
2017-01-14T06:39:07.949Z,1.72
2017-01-14T06:40:07.437Z,1.70
2017-01-14T06:41:08.053Z,1.60
2017-01-14T06:42:07.671Z,1.70
2017-01-14T06:43:07.147Z,1.51
2017-01-14T06:44:07.667Z,1.63
2017-01-14T06:45:07.349Z,1.59
2017-01-14T06:46:07.930Z,1.51
2017-01-14T06:47:07.467Z,1.70
2017-01-14T06:48:07.980Z,1.51
2017-01-14T06:49:07.835Z,1.66
2017-01-14T06:50:07.280Z,1.86
2017-01-14T06:51:07.758Z,1.67
2017-01-14T06:52:07.950Z,1.73
2017-01-14T06:53:07.408Z,1.75
2017-01-14T06:54:07.937Z,1.68
2017-01-14T06:55:07.500Z,1.74
2017-01-14T06:56:07.367Z,1.51
2017-01-14T06:57:08.091Z,1.59
2017-01-14T06:58:07.951Z,1.84
2017-01-14T06:59:07.470Z,1.86
2017-01-14T07:00:17.924Z,1.69
2017-01-14T07:01:07.606Z,1.91
2017-01-14T07:02:07.094Z,1.78
2017-01-14T07:03:07.676Z,1.53
2017-01-14T07:04:07.168Z,1.78
2017-01-14T07:05:07.683Z,1.69
2017-01-14T07:06:07.240Z,1.68
2017-01-14T07:07:07.707Z,1.86
2017-01-14T07:08:07.261Z,1.86
2017-01-14T07:09:08.836Z,1.75
2017-01-14T07:10:08.019Z,1.66
2017-01-14T07:11:07.490Z,1.62
2017-01-14T07:12:08.166Z,1.69
2017-01-14T07:13:07.664Z,1.73
2017-01-14T07:14:07.158Z,1.69
2017-01-14T07:15:07.656Z,1.79
2017-01-14T07:16:07.265Z,1.58
2017-01-14T07:17:07.932Z,1.75
2017-01-14T07:18:07.407Z,1.68
2017-01-14T07:19:07.896Z,1.90
2017-01-14T07:20:07.348Z,1.89
2017-01-14T07:21:07.890Z,1.92
2017-01-14T07:22:07.579Z,1.92
2017-01-14T07:23:07.102Z,1.91
2017-01-14T07:24:07.543Z,1.93
2017-01-14T07:25:08.037Z,1.99
2017-01-14T07:26:07.564Z,1.77
2017-01-14T07:27:08.217Z,1.92
2017-01-14T07:28:07.758Z,1.87
2017-01-14T07:29:07.339Z,1.88
2017-01-14T07:30:07.871Z,1.88
2017-01-14T07:31:07.408Z,1.64
2017-01-14T07:32:17.373Z,1.73
2017-01-14T07:33:07.975Z,1.93
2017-01-14T07:34:07.582Z,1.88
2017-01-14T07:35:08.352Z,2.04
2017-01-14T07:36:07.962Z,1.99
2017-01-14T07:37:07.579Z,1.97
2017-01-14T07:38:08.269Z,1.95
2017-01-14T07:39:07.888Z,2.02
2017-01-14T07:40:07.365Z,2.19
2017-01-14T07:41:08.080Z,2.08
2017-01-14T07:42:08.027Z,1.82
2017-01-14T07:43:07.574Z,1.89
2017-01-14T07:44:08.061Z,1.98
2017-01-14T07:45:07.646Z,2.03
2017-01-14T07:46:07.052Z,1.88
2017-01-14T07:47:07.621Z,2.01
2017-01-14T07:48:07.093Z,2.12
2017-01-14T07:49:07.673Z,2.23
2017-01-14T07:50:07.192Z,2.34
2017-01-14T07:51:07.783Z,2.24
2017-01-14T07:52:07.412Z,2.22
2017-01-14T07:53:07.909Z,2.18
2017-01-14T07:54:07.411Z,2.34
2017-01-14T07:55:07.847Z,2.29
2017-01-14T07:56:07.355Z,2.20
2017-01-14T07:57:08.280Z,2.24
2017-01-14T07:58:07.801Z,2.30
2017-01-14T07:59:07.249Z,2.33
2017-01-14T08:00:07.759Z,2.49
2017-01-14T08:01:07.159Z,2.25
2017-01-14T08:02:07.862Z,2.09
2017-01-14T08:03:07.372Z,2.10
2017-01-14T08:04:27.474Z,2.24
2017-01-14T08:05:08.103Z,1.91
2017-01-14T08:06:07.599Z,2.26
2017-01-14T08:07:07.108Z,2.37
2017-01-14T08:08:08.020Z,2.39
2017-01-14T08:09:07.505Z,2.34
2017-01-14T08:10:08.020Z,2.27
2017-01-14T08:11:07.515Z,2.32
2017-01-14T08:12:08.413Z,2.07
2017-01-14T08:13:07.944Z,2.04
2017-01-14T08:14:07.490Z,2.08
2017-01-14T08:15:07.944Z,2.15
2017-01-14T08:16:07.473Z,2.17
2017-01-14T08:17:08.185Z,2.30
2017-01-14T08:18:07.724Z,2.45
2017-01-14T08:19:07.162Z,2.20
2017-01-14T08:20:07.730Z,2.32
2017-01-14T08:21:07.705Z,2.27
2017-01-14T08:22:07.202Z,2.28
2017-01-14T08:23:07.858Z,2.38
2017-01-14T08:24:07.404Z,2.17
2017-01-14T08:25:07.921Z,2.08
2017-01-14T08:26:07.427Z,2.18
2017-01-14T08:27:08.041Z,2.26
2017-01-14T08:28:07.579Z,2.43
2017-01-14T08:29:08.071Z,2.23
2017-01-14T08:30:07.554Z,2.22
2017-01-14T08:31:08.417Z,2.23
2017-01-14T08:32:07.152Z,2.19
2017-01-14T08:33:07.723Z,2.29
2017-01-14T08:34:07.179Z,2.46
2017-01-14T08:35:07.827Z,2.31
2017-01-14T08:36:07.385Z,2.33
2017-01-14T08:37:07.917Z,2.25
2017-01-14T08:38:07.451Z,2.18
2017-01-14T08:39:07.929Z,2.49
2017-01-14T08:40:07.426Z,2.41
2017-01-14T08:41:08.017Z,2.43
2017-01-14T08:42:07.527Z,2.51
2017-01-14T08:43:08.095Z,2.47
2017-01-14T08:44:07.643Z,2.30
2017-01-14T08:45:07.143Z,2.51
2017-01-14T08:46:08.001Z,2.63
2017-01-14T08:47:07.439Z,2.80
2017-01-14T08:48:08.121Z,2.47
2017-01-14T08:49:07.352Z,2.39
2017-01-14T08:50:08.159Z,2.52
2017-01-14T08:51:07.698Z,2.45
2017-01-14T08:52:07.213Z,2.61
2017-01-14T08:53:07.797Z,2.67
2017-01-14T08:54:07.314Z,2.74
2017-01-14T08:55:07.866Z,2.78
2017-01-14T08:56:07.337Z,2.67
2017-01-14T08:57:08.158Z,2.67
2017-01-14T08:58:07.677Z,2.43
2017-01-14T08:59:07.304Z,2.55
2017-01-14T09:00:07.780Z,2.57
2017-01-14T09:01:07.245Z,2.55
2017-01-14T09:02:07.406Z,2.31
2017-01-14T09:03:07.882Z,2.50
2017-01-14T09:04:07.446Z,2.44
2017-01-14T09:05:07.886Z,2.62
2017-01-14T09:06:07.423Z,2.46
2017-01-14T09:07:07.184Z,2.34
2017-01-14T09:08:07.641Z,2.60
2017-01-14T09:09:07.154Z,2.48
2017-01-14T09:10:07.710Z,2.66
2017-01-14T09:11:07.746Z,2.82
2017-01-14T09:12:07.426Z,2.89
2017-01-14T09:13:07.934Z,2.59
2017-01-14T09:14:07.418Z,2.65
2017-01-14T09:15:07.863Z,2.84
2017-01-14T09:16:07.363Z,2.74
2017-01-14T09:17:08.060Z,2.59
2017-01-14T09:18:08.172Z,2.68
2017-01-14T09:19:08.032Z,2.88
2017-01-14T09:20:07.525Z,2.85
2017-01-14T09:21:08.528Z,2.53
2017-01-14T09:22:07.795Z,2.78
2017-01-14T09:23:07.705Z,2.68
2017-01-14T09:24:07.350Z,2.48
2017-01-14T09:25:08.116Z,2.54
2017-01-14T09:26:07.648Z,2.38
2017-01-14T09:27:07.324Z,2.38
2017-01-14T09:28:08.555Z,2.42
2017-01-14T09:29:07.926Z,2.47
2017-01-14T09:30:07.481Z,2.51
2017-01-14T09:31:08.033Z,2.50
2017-01-14T09:32:07.499Z,2.40
2017-01-14T09:33:07.870Z,2.39
2017-01-14T09:34:07.829Z,2.43
2017-01-14T09:35:07.278Z,2.68
2017-01-14T09:36:07.830Z,2.46
2017-01-14T09:37:07.385Z,2.31
2017-01-14T09:38:07.977Z,2.46
2017-01-14T09:39:07.539Z,2.48
2017-01-14T09:40:08.033Z,2.44
2017-01-14T09:41:07.636Z,2.50
2017-01-14T09:42:07.059Z,2.43
2017-01-14T09:43:07.141Z,2.29
2017-01-14T09:44:07.671Z,2.28
2017-01-14T09:45:07.171Z,2.31
2017-01-14T09:46:07.739Z,2.32
2017-01-14T09:47:07.262Z,2.26
2017-01-14T09:48:07.780Z,2.25
2017-01-14T09:49:07.308Z,2.26
2017-01-14T09:50:07.797Z,2.55
2017-01-14T09:51:07.242Z,2.37
2017-01-14T09:52:07.108Z,2.68
2017-01-14T09:53:07.574Z,2.22
2017-01-14T09:54:07.837Z,2.33
2017-01-14T09:55:07.312Z,2.33
2017-01-14T09:56:07.833Z,2.37
2017-01-14T09:57:07.503Z,2.41
2017-01-14T09:58:08.053Z,2.41
2017-01-14T09:59:07.571Z,2.00
2017-01-14T10:00:08.081Z,2.07
2017-01-14T10:01:07.552Z,2.10
2017-01-14T10:02:08.054Z,1.81
2017-01-14T10:03:07.641Z,1.96
2017-01-14T10:04:07.206Z,1.99
2017-01-14T10:05:07.688Z,1.90
2017-01-14T10:06:07.182Z,1.69
2017-01-14T10:07:07.690Z,1.79
2017-01-14T10:08:07.189Z,1.75
2017-01-14T10:09:07.961Z,1.99
2017-01-14T10:10:07.924Z,1.96
2017-01-14T10:11:07.397Z,1.76
2017-01-14T10:12:07.965Z,1.83
2017-01-14T10:13:07.442Z,1.86
2017-01-14T10:14:08.000Z,1.81
2017-01-14T10:15:07.468Z,2.00
2017-01-14T10:16:07.955Z,1.75
2017-01-14T10:17:07.500Z,1.72
2017-01-14T10:18:07.247Z,1.63
2017-01-14T10:19:07.788Z,1.85
2017-01-14T10:20:07.418Z,1.91
2017-01-14T10:21:07.991Z,1.98
2017-01-14T10:22:07.471Z,1.85
2017-01-14T10:23:08.127Z,1.93
2017-01-14T10:24:08.121Z,1.83
2017-01-14T10:25:07.616Z,1.79
2017-01-14T10:26:07.103Z,1.82
2017-01-14T10:27:07.746Z,2.14
2017-01-14T10:28:07.165Z,2.10
2017-01-14T10:29:07.275Z,2.21
2017-01-14T10:30:07.896Z,2.41
2017-01-14T10:31:07.349Z,2.49
2017-01-14T10:32:07.854Z,2.51
2017-01-14T10:33:22.825Z,2.39
2017-01-14T10:34:07.488Z,2.31
2017-01-14T10:35:08.020Z,2.28
2017-01-14T10:36:07.425Z,2.44
2017-01-14T10:37:08.021Z,2.60
2017-01-14T10:39:07.495Z,2.45
2017-01-14T10:40:07.245Z,2.63
2017-01-14T10:41:07.983Z,2.73
2017-01-14T10:42:07.536Z,2.82
2017-01-14T10:43:08.024Z,2.80
2017-01-14T10:44:07.573Z,2.53
2017-01-14T10:45:08.093Z,2.60
2017-01-14T10:46:07.644Z,2.35
2017-01-14T10:48:08.765Z,2.58
2017-01-14T10:49:07.253Z,2.56
2017-01-14T10:51:07.471Z,2.43
2017-01-14T10:52:07.987Z,2.47
2017-01-14T10:53:07.546Z,2.47
2017-01-14T10:54:08.006Z,2.50
2017-01-14T10:55:08.475Z,2.97
2017-01-14T10:56:08.086Z,2.95
2017-01-14T10:57:07.725Z,2.90
2017-01-14T10:58:07.222Z,2.82
2017-01-14T10:59:07.772Z,2.57
2017-01-14T11:00:07.259Z,2.75
2017-01-14T11:01:07.734Z,2.74
2017-01-14T11:02:17.257Z,2.63
2017-01-14T11:03:08.689Z,2.42
2017-01-14T11:04:07.417Z,2.54
2017-01-14T11:05:07.569Z,2.54
2017-01-14T11:06:08.135Z,2.42
2017-01-14T11:07:07.714Z,2.79
2017-01-14T11:08:07.235Z,2.75
2017-01-14T11:09:07.729Z,2.45
2017-01-14T11:10:07.337Z,2.41
2017-01-14T11:11:07.943Z,2.68
2017-01-14T11:12:08.097Z,2.78
2017-01-14T11:13:07.958Z,2.72
2017-01-14T11:14:07.681Z,2.78
2017-01-14T11:15:07.133Z,2.48
2017-01-14T11:16:07.649Z,2.54
2017-01-14T11:17:07.291Z,2.41
2017-01-14T11:18:07.793Z,2.58
2017-01-14T11:19:07.374Z,2.61
2017-01-14T11:20:09.514Z,2.79
2017-01-14T11:21:07.498Z,2.96
2017-01-14T11:22:08.316Z,2.67
2017-01-14T11:23:08.336Z,2.86
2017-01-14T11:24:07.814Z,3.04
2017-01-14T11:25:07.295Z,2.86
2017-01-14T11:26:07.709Z,2.97
2017-01-14T11:27:07.997Z,3.00
2017-01-14T11:28:07.514Z,3.07
2017-01-14T11:29:08.328Z,3.16
2017-01-14T11:30:07.679Z,3.02
2017-01-14T11:31:07.247Z,2.94
2017-01-14T11:32:07.841Z,2.92
2017-01-14T11:33:07.368Z,2.98
2017-01-14T11:34:07.955Z,3.20
2017-01-14T11:35:07.557Z,3.30
2017-01-14T11:36:07.993Z,2.90
2017-01-14T11:37:07.568Z,3.10
2017-01-14T11:38:09.394Z,3.34
2017-01-14T11:39:07.598Z,3.23
2017-01-14T11:40:17.067Z,3.45
2017-01-14T11:41:07.604Z,3.27
2017-01-14T11:42:07.144Z,3.49
2017-01-14T11:43:07.705Z,3.30
2017-01-14T11:44:07.239Z,3.25
2017-01-14T11:45:07.717Z,3.30
2017-01-14T11:46:07.749Z,3.46
2017-01-14T11:47:07.234Z,3.54
2017-01-14T11:48:07.764Z,3.55
2017-01-14T11:49:07.454Z,3.38
2017-01-14T11:50:07.472Z,3.25
2017-01-14T11:51:07.976Z,3.49
2017-01-14T11:52:07.522Z,3.45
2017-01-14T11:53:07.993Z,3.33
2017-01-14T11:54:07.532Z,3.25
2017-01-14T11:55:08.323Z,3.33
2017-01-14T11:56:07.836Z,3.34
2017-01-14T11:57:07.521Z,3.20
2017-01-14T11:58:17.405Z,3.28
2017-01-14T11:59:07.952Z,3.34
2017-01-14T12:00:07.513Z,3.06
2017-01-14T12:01:08.248Z,3.25
2017-01-14T12:02:07.754Z,3.11
2017-01-14T12:03:07.224Z,3.17
2017-01-14T12:04:07.952Z,2.88
2017-01-14T12:05:07.460Z,3.12
2017-01-14T12:06:07.982Z,3.26
2017-01-14T12:07:07.471Z,3.22
2017-01-14T12:08:07.992Z,3.42
2017-01-14T12:09:07.684Z,3.47
2017-01-14T12:10:07.223Z,3.50
2017-01-14T12:11:07.746Z,3.04
2017-01-14T12:12:07.196Z,3.14
2017-01-14T12:13:07.864Z,3.30
2017-01-14T12:14:07.510Z,3.63
2017-01-14T12:16:01.663Z,3.53
2017-01-14T12:16:07.304Z,3.59
2017-01-14T12:17:27.656Z,3.29
2017-01-14T12:18:07.790Z,3.21
2017-01-14T12:19:07.491Z,3.27
2017-01-14T12:20:08.332Z,3.47
2017-01-14T12:21:07.783Z,3.20
2017-01-14T12:22:07.365Z,3.21
2017-01-14T12:23:07.938Z,3.03
2017-01-14T12:24:07.595Z,3.01
2017-01-14T12:25:07.205Z,2.76
2017-01-14T12:26:07.706Z,2.96
2017-01-14T12:27:07.461Z,2.74
2017-01-14T12:28:08.042Z,2.90
2017-01-14T12:29:07.220Z,3.04
2017-01-14T12:30:07.762Z,2.96
2017-01-14T12:31:07.471Z,3.20
2017-01-14T12:32:08.044Z,3.20
2017-01-14T12:33:07.464Z,3.06
2017-01-14T12:34:08.015Z,2.57
2017-01-14T12:35:07.920Z,2.84
2017-01-14T12:36:07.782Z,2.67
2017-01-14T12:37:07.300Z,2.76
2017-01-14T12:38:07.791Z,2.88
2017-01-14T12:39:07.412Z,2.81
2017-01-14T12:40:07.902Z,2.85
2017-01-14T12:41:07.413Z,2.95
2017-01-14T12:42:07.993Z,3.12
2017-01-14T12:43:07.625Z,3.23
2017-01-14T12:44:07.158Z,3.20
2017-01-14T12:45:07.736Z,3.11
2017-01-14T12:46:07.254Z,2.98
2017-01-14T12:47:07.762Z,2.98
2017-01-14T12:48:07.243Z,2.88
2017-01-14T12:49:08.265Z,2.73
2017-01-14T12:50:07.962Z,2.98
2017-01-14T12:51:07.466Z,3.24
2017-01-14T12:52:07.981Z,3.33
2017-01-14T12:53:07.463Z,3.41
2017-01-14T12:54:08.047Z,3.40
2017-01-14T12:55:07.501Z,3.21
2017-01-14T12:56:08.205Z,3.23
2017-01-14T12:57:07.713Z,3.19
2017-01-14T12:58:07.422Z,3.10
2017-01-14T12:59:08.641Z,3.27
2017-01-14T13:00:07.346Z,2.85
2017-01-14T13:01:08.133Z,2.74
2017-01-14T13:02:07.723Z,3.03
2017-01-14T13:03:07.188Z,3.07
2017-01-14T13:04:07.782Z,2.63
2017-01-14T13:05:07.485Z,2.73
2017-01-14T13:06:08.063Z,2.80
2017-01-14T13:07:07.532Z,2.85
2017-01-14T13:08:07.603Z,3.02
2017-01-14T13:09:07.254Z,2.91
2017-01-14T13:10:07.874Z,2.60
2017-01-14T13:11:07.491Z,2.57
2017-01-14T13:12:07.914Z,2.72
2017-01-14T13:13:07.507Z,2.41
2017-01-14T13:14:08.062Z,2.69
2017-01-14T13:15:07.560Z,2.70
2017-01-14T13:16:08.404Z,2.79
2017-01-14T13:17:08.073Z,2.80
2017-01-14T13:18:07.612Z,2.87
2017-01-14T13:19:08.019Z,2.65
2017-01-14T13:20:08.509Z,2.60
2017-01-14T13:21:08.011Z,2.71